Time;durP1;ratioP1;P1;durP2;ratioP2;P2;SDS_P1;SDS_P2;PMS_P1;PMS_P2;Temp;Humidity;BMP_temperature;BMP_pressure;BME280_temperature;BME280_humidity;BME280_pressure;Samples;Min_cycle;Max_cycle;Signal;HPM_P1;HPM_P2
2022/02/27 00:00:15;;;;;;;7.10;3.07;;;;;;;;;;4984595;28;20212;-58
2022/02/27 00:02:42;;;;;;;6.30;3.00;;;;;;;;;;4978062;28;20100;-58
2022/02/27 00:05:08;;;;;;;3.53;2.40;;;;;;;;;;4973521;28;20117;-57
2022/02/27 00:07:34;;;;;;;4.80;2.67;;;;;;;;;;4982787;28;20035;-59
2022/02/27 00:10:14;;;;;;;5.63;2.87;;;;;;;;;;4979279;28;20064;-59
2022/02/27 00:12:44;;;;;;;6.70;3.70;;;;;;;;;;4986952;28;20038;-57
2022/02/27 00:15:10;;;;;;;3.77;2.80;;;;;;;;;;4992392;28;20107;-59
2022/02/27 00:17:37;;;;;;;3.80;2.90;;;;;;;;;;4982877;28;20034;-59
2022/02/27 00:20:04;;;;;;;5.03;2.67;;;;;;;;;;4976091;28;20043;-58
2022/02/27 00:22:30;;;;;;;4.70;2.50;;;;;;;;;;4982717;28;20492;-59
2022/02/27 00:24:56;;;;;;;6.20;3.13;;;;;;;;;;4992533;28;20077;-56
2022/02/27 00:27:22;;;;;;;6.03;3.20;;;;;;;;;;4991265;28;20480;-58
2022/02/27 00:29:48;;;;;;;8.33;3.63;;;;;;;;;;4991501;28;20124;-58
2022/02/27 00:32:14;;;;;;;5.87;3.07;;;;;;;;;;4986972;28;20037;-58
2022/02/27 00:34:40;;;;;;;5.73;2.90;;;;;;;;;;4992222;28;20488;-58
2022/02/27 00:37:06;;;;;;;4.00;3.37;;;;;;;;;;4991153;28;20156;-58
2022/02/27 00:39:32;;;;;;;4.67;3.03;;;;;;;;;;4991689;28;20117;-59
2022/02/27 00:41:58;;;;;;;5.17;3.40;;;;;;;;;;4977346;28;20420;-59
2022/02/27 00:44:24;;;;;;;6.07;3.37;;;;;;;;;;4992298;28;20022;-59
2022/02/27 00:46:50;;;;;;;6.97;3.07;;;;;;;;;;4990775;28;20101;-57
2022/02/27 00:49:16;;;;;;;7.50;3.13;;;;;;;;;;4989947;28;20488;-59
2022/02/27 00:51:42;;;;;;;4.47;3.50;;;;;;;;;;4989390;28;20031;-58
2022/02/27 00:54:08;;;;;;;6.77;3.13;;;;;;;;;;4972364;28;20035;-57
2022/02/27 00:56:35;;;;;;;7.40;4.00;;;;;;;;;;4977403;28;20110;-58
2022/02/27 00:59:01;;;;;;;5.93;3.20;;;;;;;;;;4991351;28;20447;-59
2022/02/27 01:01:27;;;;;;;7.90;3.63;;;;;;;;;;4988394;28;20113;-58
2022/02/27 01:03:52;;;;;;;5.67;3.53;;;;;;;;;;4971778;28;20031;-58
2022/02/27 01:06:19;;;;;;;4.27;3.23;;;;;;;;;;4985319;28;20110;-58
2022/02/27 01:08:45;;;;;;;4.70;3.30;;;;;;;;;;4982067;28;20042;-58
2022/02/27 01:11:11;;;;;;;4.23;2.47;;;;;;;;;;4979401;28;20083;-58
2022/02/27 01:13:38;;;;;;;6.10;3.20;;;;;;;;;;4989421;28;20500;-56
2022/02/27 01:16:05;;;;;;;4.93;3.13;;;;;;;;;;4979579;28;20027;-57
2022/02/27 01:18:31;;;;;;;7.47;3.60;;;;;;;;;;4984228;28;20030;-59
2022/02/27 01:20:57;;;;;;;6.70;3.30;;;;;;;;;;4982329;28;20030;-57
2022/02/27 01:23:23;;;;;;;5.50;2.93;;;;;;;;;;4977011;28;20087;-57
2022/02/27 01:25:49;;;;;;;4.80;3.30;;;;;;;;;;4988884;28;20027;-58
2022/02/27 01:28:15;;;;;;;4.77;3.10;;;;;;;;;;4989033;28;20416;-57
2022/02/27 01:30:42;;;;;;;4.23;3.13;;;;;;;;;;4976438;28;21606;-56
2022/02/27 01:33:08;;;;;;;6.23;3.43;;;;;;;;;;4971855;28;20480;-55
2022/02/27 01:35:34;;;;;;;6.47;3.50;;;;;;;;;;4971900;28;20038;-57
2022/02/27 01:38:00;;;;;;;6.13;3.40;;;;;;;;;;4984470;28;20492;-55
2022/02/27 01:40:26;;;;;;;4.97;2.77;;;;;;;;;;4977130;28;20098;-57
2022/02/27 01:42:52;;;;;;;4.07;2.97;;;;;;;;;;4980992;28;20038;-59
2022/02/27 01:45:18;;;;;;;6.20;2.77;;;;;;;;;;4985548;28;20029;-54
2022/02/27 01:47:44;;;;;;;4.50;3.27;;;;;;;;;;4979866;28;20102;-56
2022/02/27 01:50:11;;;;;;;5.90;3.23;;;;;;;;;;4984541;28;20061;-55
2022/02/27 01:52:37;;;;;;;6.47;3.43;;;;;;;;;;4975142;28;20062;-57
2022/02/27 01:55:04;;;;;;;3.80;2.33;;;;;;;;;;4970059;28;20042;-56
2022/02/27 01:57:30;;;;;;;3.93;2.47;;;;;;;;;;4970824;28;20031;-58
2022/02/27 01:59:56;;;;;;;4.50;2.40;;;;;;;;;;4986103;28;20030;-56
2022/02/27 02:05:26;;;;;;;4.30;2.20;;;;;;;;;;4975383;28;20029;-56
2022/02/27 02:07:52;;;;;;;4.57;2.40;;;;;;;;;;4975905;28;20549;-57
2022/02/27 02:10:18;;;;;;;3.90;2.10;;;;;;;;;;4978462;28;20027;-57
2022/02/27 02:12:44;;;;;;;4.60;2.20;;;;;;;;;;4972220;28;20080;-56
2022/02/27 02:15:12;;;;;;;3.67;2.40;;;;;;;;;;4971591;28;20039;-56
2022/02/27 02:17:38;;;;;;;2.37;1.70;;;;;;;;;;4968849;28;20484;-57
2022/02/27 02:20:05;;;;;;;5.17;2.07;;;;;;;;;;4981925;28;20104;-56
2022/02/27 02:22:31;;;;;;;3.67;1.80;;;;;;;;;;4987329;28;20030;-57
2022/02/27 02:24:57;;;;;;;4.13;2.00;;;;;;;;;;4988487;28;20084;-57
2022/02/27 02:27:23;;;;;;;3.73;2.37;;;;;;;;;;4987240;28;20068;-58
2022/02/27 02:29:49;;;;;;;3.97;1.83;;;;;;;;;;4978946;28;20027;-56
2022/02/27 02:32:15;;;;;;;4.80;2.60;;;;;;;;;;4983879;28;20079;-57
2022/02/27 02:34:41;;;;;;;3.97;2.27;;;;;;;;;;4971679;28;20043;-56
2022/02/27 02:37:10;;;;;;;3.20;1.53;;;;;;;;;;4978660;28;20026;-57
2022/02/27 02:39:37;;;;;;;5.07;2.20;;;;;;;;;;4988610;28;20113;-57
2022/02/27 02:42:03;;;;;;;5.23;2.57;;;;;;;;;;4976011;28;20120;-57
2022/02/27 02:44:29;;;;;;;5.07;1.73;;;;;;;;;;4971128;28;20027;-57
2022/02/27 02:46:55;;;;;;;4.33;2.47;;;;;;;;;;4971296;28;20030;-56
2022/02/27 02:49:21;;;;;;;4.90;2.10;;;;;;;;;;4978846;28;20117;-56
2022/02/27 02:51:47;;;;;;;5.00;1.93;;;;;;;;;;4970742;28;20449;-56
2022/02/27 02:54:13;;;;;;;4.30;2.33;;;;;;;;;;4975592;28;20125;-57
2022/02/27 02:56:40;;;;;;;4.83;2.60;;;;;;;;;;4988746;28;20023;-57
2022/02/27 02:59:06;;;;;;;5.53;2.13;;;;;;;;;;4988685;28;20038;-54
2022/02/27 03:01:32;;;;;;;4.10;2.03;;;;;;;;;;4987322;28;20027;-56
2022/02/27 03:03:58;;;;;;;5.47;2.63;;;;;;;;;;4984993;28;20030;-56
2022/02/27 03:06:24;;;;;;;5.30;2.00;;;;;;;;;;4984970;28;20027;-56
2022/02/27 03:08:52;;;;;;;6.23;2.37;;;;;;;;;;4983560;28;20033;-58
2022/02/27 03:11:21;;;;;;;3.33;2.40;;;;;;;;;;4977270;28;20076;-57
2022/02/27 03:13:47;;;;;;;6.67;2.37;;;;;;;;;;4973976;28;20532;-55
2022/02/27 03:16:14;;;;;;;6.07;2.17;;;;;;;;;;4987432;28;20026;-57
2022/02/27 03:18:40;;;;;;;7.17;2.93;;;;;;;;;;4988263;28;20034;-56
2022/02/27 03:21:06;;;;;;;4.80;1.90;;;;;;;;;;4992346;28;20030;-58
2022/02/27 03:23:33;;;;;;;5.87;2.13;;;;;;;;;;4981330;28;20354;-58
2022/02/27 03:26:00;;;;;;;5.40;2.13;;;;;;;;;;4982864;28;20022;-57
2022/02/27 03:28:26;;;;;;;7.00;2.20;;;;;;;;;;4973560;28;20057;-57
2022/02/27 03:30:53;;;;;;;8.13;2.07;;;;;;;;;;4983578;28;20117;-56
2022/02/27 03:33:19;;;;;;;6.80;2.80;;;;;;;;;;4983215;28;20053;-56
2022/02/27 03:35:46;;;;;;;6.97;2.07;;;;;;;;;;4974361;28;20392;-56
2022/02/27 03:38:12;;;;;;;4.33;2.00;;;;;;;;;;4973767;28;20035;-57
2022/02/27 03:40:38;;;;;;;5.63;2.20;;;;;;;;;;4987227;28;20031;-53
2022/02/27 03:43:04;;;;;;;3.87;2.33;;;;;;;;;;4973380;28;20030;-58
2022/02/27 03:45:30;;;;;;;6.40;2.17;;;;;;;;;;4978139;28;20034;-57
2022/02/27 03:47:56;;;;;;;8.37;2.40;;;;;;;;;;4990619;28;20041;-57
2022/02/27 03:50:22;;;;;;;3.93;1.80;;;;;;;;;;4982139;28;20502;-56
2022/02/27 03:52:48;;;;;;;3.50;1.80;;;;;;;;;;4973475;28;20023;-56
2022/02/27 03:55:15;;;;;;;3.60;2.10;;;;;;;;;;4986467;28;20109;-57
2022/02/27 03:57:41;;;;;;;3.77;2.20;;;;;;;;;;4992348;28;20070;-57
2022/02/27 04:00:12;;;;;;;10.17;2.80;;;;;;;;;;4990907;28;20023;-58
2022/02/27 04:02:39;;;;;;;7.57;2.10;;;;;;;;;;4981396;28;20033;-57
2022/02/27 04:05:26;;;;;;;6.00;2.00;;;;;;;;;;4991129;28;20083;-58
2022/02/27 04:07:52;;;;;;;4.83;2.20;;;;;;;;;;4988305;28;20027;-58
2022/02/27 04:10:19;;;;;;;3.50;1.70;;;;;;;;;;4991361;28;20430;-58
2022/02/27 04:12:45;;;;;;;6.07;1.90;;;;;;;;;;4981211;28;20031;-57
2022/02/27 04:15:11;;;;;;;3.83;1.80;;;;;;;;;;4985422;28;20046;-58
2022/02/27 04:17:37;;;;;;;6.00;1.87;;;;;;;;;;4976718;28;20052;-58
2022/02/27 04:20:04;;;;;;;5.20;1.60;;;;;;;;;;4977907;28;20056;-59
2022/02/27 04:22:29;;;;;;;4.87;2.10;;;;;;;;;;4992281;28;20036;-59
2022/02/27 04:24:56;;;;;;;4.20;1.87;;;;;;;;;;4991532;28;20039;-57
2022/02/27 04:27:22;;;;;;;5.67;2.10;;;;;;;;;;4991741;28;20065;-58
2022/02/27 04:29:48;;;;;;;7.23;2.07;;;;;;;;;;4983872;28;20484;-58
2022/02/27 04:32:14;;;;;;;4.33;1.63;;;;;;;;;;4979619;28;20030;-57
2022/02/27 04:34:40;;;;;;;4.17;1.60;;;;;;;;;;4989753;28;20037;-58
2022/02/27 04:37:06;;;;;;;7.33;2.23;;;;;;;;;;4992412;28;20025;-57
2022/02/27 04:39:32;;;;;;;6.17;2.47;;;;;;;;;;4991305;28;20408;-56
2022/02/27 04:41:58;;;;;;;5.37;2.47;;;;;;;;;;4987170;28;20026;-58
2022/02/27 04:44:24;;;;;;;2.63;1.70;;;;;;;;;;4982866;28;20041;-58
2022/02/27 04:46:50;;;;;;;3.27;1.60;;;;;;;;;;4989501;28;20018;-58
2022/02/27 04:49:16;;;;;;;5.77;2.17;;;;;;;;;;4988371;28;20038;-57
2022/02/27 04:51:42;;;;;;;9.83;2.60;;;;;;;;;;4989299;28;20029;-57
2022/02/27 04:54:09;;;;;;;8.57;3.03;;;;;;;;;;4991033;28;20038;-58
2022/02/27 04:56:35;;;;;;;5.53;2.77;;;;;;;;;;4988612;28;20053;-57
2022/02/27 04:59:01;;;;;;;6.43;3.53;;;;;;;;;;4983504;28;20026;-57
2022/02/27 05:01:27;;;;;;;6.80;3.30;;;;;;;;;;4972350;28;20023;-58
2022/02/27 05:03:53;;;;;;;8.13;4.33;;;;;;;;;;4979916;28;20095;-58
2022/02/27 05:06:19;;;;;;;7.37;3.70;;;;;;;;;;4989915;28;20030;-57
2022/02/27 05:08:45;;;;;;;6.53;3.47;;;;;;;;;;4985473;28;20113;-57
2022/02/27 05:11:11;;;;;;;6.77;3.10;;;;;;;;;;4980995;28;20536;-57
2022/02/27 05:13:37;;;;;;;8.07;3.73;;;;;;;;;;4985651;28;20121;-57
2022/02/27 05:16:03;;;;;;;6.50;3.70;;;;;;;;;;4981924;28;20060;-57
2022/02/27 05:18:29;;;;;;;5.17;3.70;;;;;;;;;;4982122;28;20040;-57
2022/02/27 05:20:55;;;;;;;8.27;3.63;;;;;;;;;;4975283;28;20042;-58
2022/02/27 05:23:21;;;;;;;6.87;3.20;;;;;;;;;;4978684;28;20022;-57
2022/02/27 05:25:47;;;;;;;5.63;3.47;;;;;;;;;;4988278;28;20442;-58
2022/02/27 05:28:13;;;;;;;6.47;3.80;;;;;;;;;;4988997;28;20023;-57
2022/02/27 05:30:40;;;;;;;8.10;2.90;;;;;;;;;;4978905;28;20030;-59
2022/02/27 05:33:06;;;;;;;5.17;3.50;;;;;;;;;;4969958;28;20050;-60
2022/02/27 05:35:33;;;;;;;12.10;3.53;;;;;;;;;;4978361;28;20070;-59
2022/02/27 05:37:59;;;;;;;6.30;3.57;;;;;;;;;;4988742;28;20068;-57
2022/02/27 05:40:26;;;;;;;7.00;3.60;;;;;;;;;;4975129;28;20109;-57
2022/02/27 05:42:52;;;;;;;6.17;3.33;;;;;;;;;;4980594;28;20030;-56
2022/02/27 05:45:18;;;;;;;3.90;3.00;;;;;;;;;;4989563;28;20067;-57
2022/02/27 05:47:44;;;;;;;4.50;3.20;;;;;;;;;;4988968;28;20026;-56
2022/02/27 05:50:10;;;;;;;6.73;3.43;;;;;;;;;;4989684;28;20041;-58
2022/02/27 05:52:36;;;;;;;5.33;3.40;;;;;;;;;;4986089;28;20030;-56
2022/02/27 05:55:02;;;;;;;11.10;3.53;;;;;;;;;;4978141;28;20496;-58
2022/02/27 05:57:28;;;;;;;4.43;3.13;;;;;;;;;;4982620;28;20148;-58
2022/02/27 05:59:54;;;;;;;9.07;4.27;;;;;;;;;;4971660;28;20429;-55
2022/02/27 06:02:20;;;;;;;7.20;3.80;;;;;;;;;;4982015;28;20150;-58
2022/02/27 06:04:48;;;;;;;5.63;3.37;;;;;;;;;;4973249;28;20062;-57
2022/02/27 06:07:14;;;;;;;5.97;3.17;;;;;;;;;;4973864;28;20379;-57
2022/02/27 06:09:40;;;;;;;6.97;3.07;;;;;;;;;;4977842;28;20031;-56
2022/02/27 06:12:06;;;;;;;5.90;3.43;;;;;;;;;;4983753;28;20469;-57
2022/02/27 06:14:32;;;;;;;7.37;3.93;;;;;;;;;;4990343;28;20049;-58
2022/02/27 06:16:58;;;;;;;7.43;4.10;;;;;;;;;;4988584;28;20022;-58
2022/02/27 06:19:24;;;;;;;9.57;3.10;;;;;;;;;;4988565;28;20117;-56
2022/02/27 06:21:50;;;;;;;5.10;3.57;;;;;;;;;;4976991;28;20027;-57
2022/02/27 06:24:16;;;;;;;4.97;3.57;;;;;;;;;;4989501;28;20062;-56
2022/02/27 06:26:43;;;;;;;6.13;3.40;;;;;;;;;;4989613;28;20038;-56
2022/02/27 06:29:09;;;;;;;6.27;3.43;;;;;;;;;;4988973;28;20030;-57
2022/02/27 06:31:35;;;;;;;9.47;3.87;;;;;;;;;;4984911;28;20032;-56
2022/02/27 06:34:01;;;;;;;4.67;2.83;;;;;;;;;;4990593;28;20038;-57
2022/02/27 06:36:27;;;;;;;5.70;3.87;;;;;;;;;;4975261;28;20035;-58
2022/02/27 06:38:53;;;;;;;7.33;3.37;;;;;;;;;;4979142;28;20027;-56
2022/02/27 06:41:20;;;;;;;6.53;3.67;;;;;;;;;;4979332;28;20045;-57
2022/02/27 06:43:46;;;;;;;9.30;3.57;;;;;;;;;;4969780;28;20551;-56
2022/02/27 06:46:12;;;;;;;9.30;3.50;;;;;;;;;;4980294;28;20079;-57
2022/02/27 06:48:38;;;;;;;7.43;4.07;;;;;;;;;;4992392;28;20026;-56
2022/02/27 06:51:05;;;;;;;6.57;3.40;;;;;;;;;;4984639;28;20023;-55
2022/02/27 06:53:31;;;;;;;5.87;2.87;;;;;;;;;;4973319;28;20035;-57
2022/02/27 06:55:57;;;;;;;5.20;3.37;;;;;;;;;;4983724;28;20121;-58
2022/02/27 06:58:26;;;;;;;3.87;2.90;;;;;;;;;;4978066;28;20457;-58
2022/02/27 07:00:52;;;;;;;7.83;3.20;;;;;;;;;;4974050;28;20114;-55
2022/02/27 07:03:18;;;;;;;5.07;2.80;;;;;;;;;;4976290;28;20552;-58
2022/02/27 07:05:44;;;;;;;6.27;2.90;;;;;;;;;;4982780;28;20030;-57
2022/02/27 07:08:10;;;;;;;8.17;3.23;;;;;;;;;;4973349;28;20418;-57
2022/02/27 07:10:36;;;;;;;5.57;3.07;;;;;;;;;;4982340;28;20407;-56
2022/02/27 07:13:03;;;;;;;5.77;3.30;;;;;;;;;;4980175;28;20118;-56
2022/02/27 07:15:29;;;;;;;7.03;3.33;;;;;;;;;;4978283;28;20072;-57
2022/02/27 07:17:56;;;;;;;5.57;3.07;;;;;;;;;;4980100;28;20503;-57
2022/02/27 07:20:22;;;;;;;4.23;2.43;;;;;;;;;;4981817;28;20096;-57
2022/02/27 07:22:48;;;;;;;5.77;3.30;;;;;;;;;;4984728;28;20373;-53
2022/02/27 07:25:14;;;;;;;6.40;3.67;;;;;;;;;;4989036;28;20042;-55
2022/02/27 07:27:40;;;;;;;5.87;3.20;;;;;;;;;;4992183;28;20117;-56
2022/02/27 07:30:07;;;;;;;6.97;2.93;;;;;;;;;;4987161;28;20046;-56
2022/02/27 07:32:33;;;;;;;3.67;2.70;;;;;;;;;;4984482;28;20422;-56
2022/02/27 07:34:59;;;;;;;6.53;2.53;;;;;;;;;;4993158;28;20065;-57
2022/02/27 07:37:26;;;;;;;6.50;2.93;;;;;;;;;;4991223;28;20238;-56
2022/02/27 07:39:52;;;;;;;5.23;2.77;;;;;;;;;;4993034;28;20034;-56
2022/02/27 07:42:18;;;;;;;6.77;3.00;;;;;;;;;;4977330;28;20023;-56
2022/02/27 07:44:46;;;;;;;6.03;2.63;;;;;;;;;;4992587;28;20034;-57
2022/02/27 07:47:12;;;;;;;3.70;2.20;;;;;;;;;;4980463;28;20055;-55
2022/02/27 07:49:38;;;;;;;3.37;2.20;;;;;;;;;;4982195;28;20068;-56
2022/02/27 07:52:04;;;;;;;4.03;2.40;;;;;;;;;;4989757;28;20556;-58
2022/02/27 07:54:30;;;;;;;4.53;2.50;;;;;;;;;;4979669;28;20045;-57
2022/02/27 07:56:56;;;;;;;4.07;2.50;;;;;;;;;;4980403;28;20106;-58
2022/02/27 07:59:22;;;;;;;5.03;2.30;;;;;;;;;;4988198;28;20041;-55
2022/02/27 08:01:48;;;;;;;3.60;2.30;;;;;;;;;;4984980;28;20050;-57
2022/02/27 08:04:15;;;;;;;6.90;2.63;;;;;;;;;;4983435;28;20073;-55
2022/02/27 08:06:41;;;;;;;3.73;2.40;;;;;;;;;;4988498;28;20019;-59
2022/02/27 08:09:07;;;;;;;4.60;2.40;;;;;;;;;;4990912;28;20373;-57
2022/02/27 08:11:34;;;;;;;5.77;2.43;;;;;;;;;;4978446;28;20101;-57
2022/02/27 08:14:00;;;;;;;5.80;2.50;;;;;;;;;;4985136;28;20051;-57
2022/02/27 08:16:26;;;;;;;3.50;2.30;;;;;;;;;;4985216;28;20511;-55
2022/02/27 08:18:52;;;;;;;3.90;2.80;;;;;;;;;;4991631;28;20069;-57
2022/02/27 08:21:18;;;;;;;5.23;3.17;;;;;;;;;;4992362;28;20023;-57
2022/02/27 08:23:45;;;;;;;4.10;2.37;;;;;;;;;;4991099;28;20526;-55
2022/02/27 08:26:11;;;;;;;6.03;2.40;;;;;;;;;;4992414;28;20034;-57
2022/02/27 08:28:37;;;;;;;5.43;2.63;;;;;;;;;;4989039;28;20027;-57
2022/02/27 08:31:04;;;;;;;6.33;2.30;;;;;;;;;;4991997;28;20042;-57
2022/02/27 08:33:30;;;;;;;5.43;2.50;;;;;;;;;;4982724;28;20383;-58
2022/02/27 08:35:56;;;;;;;3.97;2.77;;;;;;;;;;4971302;28;20043;-56
2022/02/27 08:38:23;;;;;;;4.10;2.50;;;;;;;;;;4987875;28;20058;-57
2022/02/27 08:40:50;;;;;;;3.57;2.50;;;;;;;;;;4992538;28;20030;-58
2022/02/27 08:43:17;;;;;;;4.43;2.60;;;;;;;;;;4989321;28;20041;-58
2022/02/27 08:45:43;;;;;;;3.33;2.30;;;;;;;;;;4985787;28;20029;-57
2022/02/27 08:48:09;;;;;;;5.60;3.27;;;;;;;;;;4984122;28;20389;-57
2022/02/27 08:50:35;;;;;;;4.20;2.43;;;;;;;;;;4990323;28;20040;-57
2022/02/27 08:53:01;;;;;;;6.73;2.40;;;;;;;;;;4990086;28;20061;-58
2022/02/27 08:55:29;;;;;;;4.00;2.43;;;;;;;;;;4992207;28;20040;-57
2022/02/27 08:57:55;;;;;;;3.20;2.07;;;;;;;;;;4980985;28;20030;-57
2022/02/27 09:00:21;;;;;;;4.97;2.33;;;;;;;;;;5011652;28;20053;-58
2022/02/27 09:02:47;;;;;;;3.47;1.80;;;;;;;;;;5053385;28;20383;-58
2022/02/27 09:05:14;;;;;;;6.93;2.03;;;;;;;;;;4987136;28;20027;-58
2022/02/27 09:07:40;;;;;;;7.87;1.80;;;;;;;;;;4976727;28;20035;-57
2022/02/27 09:10:08;;;;;;;4.90;2.10;;;;;;;;;;4990277;28;20030;-58
2022/02/27 09:12:34;;;;;;;4.30;2.03;;;;;;;;;;4991011;28;20027;-58
2022/02/27 09:15:00;;;;;;;4.47;2.10;;;;;;;;;;4978734;28;20069;-58
2022/02/27 09:17:26;;;;;;;2.33;1.53;;;;;;;;;;4985959;28;20035;-58
2022/02/27 09:19:53;;;;;;;4.30;1.90;;;;;;;;;;4989695;28;20054;-57
2022/02/27 09:22:19;;;;;;;5.73;2.30;;;;;;;;;;4991740;28;20030;-58
2022/02/27 09:24:45;;;;;;;4.47;1.73;;;;;;;;;;4990628;28;20042;-58
2022/02/27 09:27:11;;;;;;;3.77;1.80;;;;;;;;;;4989158;28;20100;-59
2022/02/27 09:29:38;;;;;;;3.83;2.07;;;;;;;;;;5007388;28;20031;-59
2022/02/27 09:32:04;;;;;;;4.30;1.87;;;;;;;;;;4991419;28;20502;-56
2022/02/27 09:34:30;;;;;;;7.17;2.13;;;;;;;;;;4990251;28;20061;-57
2022/02/27 09:36:57;;;;;;;4.30;2.27;;;;;;;;;;5006073;28;20035;-57
2022/02/27 09:39:26;;;;;;;5.03;2.40;;;;;;;;;;4989467;28;20109;-57
2022/02/27 09:41:52;;;;;;;5.03;4.50;;;;;;;;;;4981982;28;20035;-55
2022/02/27 09:44:19;;;;;;;5.20;2.27;;;;;;;;;;5011944;28;20038;-56
2022/02/27 09:46:48;;;;;;;4.90;2.13;;;;;;;;;;4989846;28;20120;-58
2022/02/27 09:49:14;;;;;;;6.93;3.13;;;;;;;;;;4991171;28;20117;-57
2022/02/27 09:51:41;;;;;;;5.33;2.53;;;;;;;;;;4985571;28;20050;-60
2022/02/27 09:54:09;;;;;;;4.53;1.93;;;;;;;;;;4981773;28;20444;-57
2022/02/27 09:56:35;;;;;;;4.87;2.07;;;;;;;;;;4985178;28;20018;-58
2022/02/27 09:59:01;;;;;;;3.87;2.33;;;;;;;;;;4980268;28;20030;-57
2022/02/27 10:01:27;;;;;;;3.30;2.57;;;;;;;;;;4970848;28;20081;-58
2022/02/27 10:03:53;;;;;;;3.97;2.13;;;;;;;;;;4989809;28;20023;-57
2022/02/27 10:06:20;;;;;;;5.87;2.90;;;;;;;;;;4990098;28;20824;-59
2022/02/27 10:08:46;;;;;;;4.17;2.13;;;;;;;;;;4986209;28;20072;-55
2022/02/27 10:11:17;;;;;;;5.23;2.50;;;;;;;;;;4976466;28;20384;-57
2022/02/27 10:13:45;;;;;;;6.20;2.80;;;;;;;;;;5006728;28;20014;-57
2022/02/27 10:16:14;;;;;;;4.70;2.53;;;;;;;;;;4986201;28;20354;-56
2022/02/27 10:18:43;;;;;;;4.47;2.50;;;;;;;;;;4980991;28;20058;-58
2022/02/27 10:21:20;;;;;;;8.47;2.67;;;;;;;;;;4995210;28;20031;-57
2022/02/27 10:23:56;;;;;;;2.63;2.27;;;;;;;;;;5045645;28;20105;-57
2022/02/27 10:26:23;;;;;;;3.07;2.77;;;;;;;;;;4995778;28;20035;-57
2022/02/27 10:29:09;;;;;;;2.87;2.40;;;;;;;;;;4991655;28;20148;-56
2022/02/27 10:31:36;;;;;;;4.73;2.60;;;;;;;;;;4989879;28;20027;-55
2022/02/27 10:34:11;;;;;;;4.23;2.73;;;;;;;;;;4994745;28;20060;-57
2022/02/27 10:36:37;;;;;;;4.57;2.90;;;;;;;;;;4985703;28;20031;-56
2022/02/27 10:39:04;;;;;;;4.67;2.33;;;;;;;;;;4980073;28;20118;-54
2022/02/27 10:41:38;;;;;;;5.17;2.80;;;;;;;;;;4987588;28;20117;-54
2022/02/27 10:44:04;;;;;;;5.72;2.75;;;;;;;;;;4996878;28;20077;-56
2022/02/27 10:46:33;;;;;;;5.57;2.20;;;;;;;;;;4995114;28;20047;-57
2022/02/27 10:49:00;;;;;;;4.57;2.40;;;;;;;;;;4989188;28;20027;-57
2022/02/27 10:51:33;;;;;;;3.60;2.63;;;;;;;;;;5053284;28;20770;-57
2022/02/27 10:53:59;;;;;;;4.37;2.23;;;;;;;;;;4995597;28;20046;-59
2022/02/27 10:56:32;;;;;;;4.03;2.47;;;;;;;;;;4993969;28;20034;-55
2022/02/27 10:58:58;;;;;;;4.77;3.10;;;;;;;;;;4977370;28;20034;-58
2022/02/27 11:01:25;;;;;;;6.23;3.23;;;;;;;;;;4980196;28;20037;-55
2022/02/27 11:03:52;;;;;;;3.90;2.63;;;;;;;;;;4988610;28;20440;-58
2022/02/27 11:06:19;;;;;;;2.57;2.37;;;;;;;;;;4983014;28;20125;-57
2022/02/27 11:08:45;;;;;;;5.13;2.33;;;;;;;;;;4991993;28;20117;-58
2022/02/27 11:11:12;;;;;;;3.80;2.47;;;;;;;;;;4983808;28;20050;-59
2022/02/27 11:13:39;;;;;;;3.03;2.10;;;;;;;;;;4982061;28;20059;-59
2022/02/27 11:16:07;;;;;;;4.10;2.30;;;;;;;;;;4990297;28;20030;-58
2022/02/27 11:18:33;;;;;;;4.53;2.73;;;;;;;;;;4989271;28;20037;-58
2022/02/27 11:20:59;;;;;;;4.00;3.00;;;;;;;;;;4992325;28;20043;-57
2022/02/27 11:23:25;;;;;;;5.43;2.73;;;;;;;;;;4995605;28;20062;-57
2022/02/27 11:25:52;;;;;;;4.23;2.60;;;;;;;;;;4996450;28;20022;-58
2022/02/27 11:28:23;;;;;;;5.03;2.50;;;;;;;;;;5039549;28;20032;-58
2022/02/27 11:30:51;;;;;;;4.60;2.80;;;;;;;;;;5011217;28;20026;-58
2022/02/27 11:33:24;;;;;;;7.13;3.10;;;;;;;;;;4991217;28;20373;-58
2022/02/27 11:35:51;;;;;;;4.73;2.50;;;;;;;;;;4990910;28;20519;-54
2022/02/27 11:38:19;;;;;;;4.27;2.47;;;;;;;;;;4975720;28;20548;-56
2022/02/27 11:40:45;;;;;;;2.33;1.93;;;;;;;;;;4984954;28;20047;-55
2022/02/27 11:43:16;;;;;;;4.27;2.47;;;;;;;;;;5049285;28;20062;-56
2022/02/27 11:45:45;;;;;;;4.37;2.30;;;;;;;;;;4984293;28;20034;-57
2022/02/27 11:48:12;;;;;;;3.37;2.23;;;;;;;;;;4985067;28;20026;-56
2022/02/27 11:50:40;;;;;;;4.13;2.60;;;;;;;;;;4981323;28;20120;-57
2022/02/27 11:53:23;;;;;;;6.30;2.83;;;;;;;;;;4984339;28;20053;-57
2022/02/27 11:55:50;;;;;;;5.37;3.30;;;;;;;;;;4982768;28;20095;-57
2022/02/27 11:58:21;;;;;;;3.47;2.63;;;;;;;;;;4986487;28;20029;-58
2022/02/27 12:00:48;;;;;;;4.28;2.45;;;;;;;;;;4982269;28;20031;-55
2022/02/27 12:03:32;;;;;;;6.50;2.85;;;;;;;;;;4987177;28;20087;-57
2022/02/27 12:06:00;;;;;;;4.47;2.25;;;;;;;;;;4982978;28;20039;-58
2022/02/27 12:08:45;;;;;;;3.97;2.65;;;;;;;;;;4973412;28;20059;-57
2022/02/27 12:11:26;;;;;;;3.20;2.38;;;;;;;;;;4977552;28;20034;-57
2022/02/27 12:13:56;;;;;;;6.18;3.58;;;;;;;;;;5001673;28;20040;-58
2022/02/27 12:16:35;;;;;;;3.83;2.60;;;;;;;;;;4986061;28;20033;-54
2022/02/27 12:19:02;;;;;;;3.13;2.80;;;;;;;;;;4987966;28;20377;-58
2022/02/27 12:21:31;;;;;;;2.95;2.22;;;;;;;;;;4978658;28;20115;-58
2022/02/27 12:24:04;;;;;;;2.42;2.22;;;;;;;;;;4991735;28;20468;-59
2022/02/27 12:26:37;;;;;;;3.30;2.50;;;;;;;;;;4997263;28;20042;-57
2022/02/27 12:29:04;;;;;;;3.65;2.60;;;;;;;;;;5033594;28;20026;-59
2022/02/27 12:31:32;;;;;;;3.55;2.50;;;;;;;;;;5015717;28;20488;-57
2022/02/27 12:33:59;;;;;;;4.05;2.83;;;;;;;;;;4998406;28;20480;-58
2022/02/27 12:36:29;;;;;;;5.35;3.17;;;;;;;;;;4997122;28;20038;-59
2022/02/27 12:38:58;;;;;;;5.35;4.40;;;;;;;;;;4983349;28;20041;-59
2022/02/27 12:41:27;;;;;;;3.40;2.30;;;;;;;;;;4975042;28;20507;-58
2022/02/27 12:43:53;;;;;;;3.38;2.45;;;;;;;;;;4991858;28;20027;-57
2022/02/27 12:46:19;;;;;;;4.85;2.40;;;;;;;;;;4989632;28;20035;-58
2022/02/27 12:51:42;;;;;;;3.53;2.35;;;;;;;;;;4986527;28;20121;-58
2022/02/27 12:54:23;;;;;;;3.88;2.33;;;;;;;;;;4991864;28;20026;-58
2022/02/27 12:56:55;;;;;;;4.43;2.72;;;;;;;;;;4990708;28;20484;-55
2022/02/27 12:59:22;;;;;;;4.75;3.03;;;;;;;;;;4992037;28;20079;-57
2022/02/27 13:01:53;;;;;;;4.40;3.38;;;;;;;;;;4984765;28;20031;-57
2022/02/27 13:04:19;;;;;;;7.45;2.83;;;;;;;;;;4983101;28;20559;-55
2022/02/27 13:06:56;;;;;;;7.13;3.30;;;;;;;;;;4990577;28;20034;-57
2022/02/27 13:09:26;;;;;;;6.35;3.60;;;;;;;;;;4991842;28;20128;-57
2022/02/27 13:11:54;;;;;;;3.92;2.92;;;;;;;;;;4990655;28;20099;-55
2022/02/27 13:14:21;;;;;;;2.53;2.30;;;;;;;;;;4990393;28;20062;-57
2022/02/27 13:16:51;;;;;;;4.72;3.80;;;;;;;;;;4990495;28;20478;-57
2022/02/27 13:19:30;;;;;;;4.95;3.00;;;;;;;;;;4990434;28;20058;-57
2022/02/27 13:21:56;;;;;;;5.47;2.97;;;;;;;;;;4990975;28;20490;-58
2022/02/27 13:24:31;;;;;;;5.00;3.22;;;;;;;;;;5000808;28;20099;-57
2022/02/27 13:27:00;;;;;;;3.58;2.72;;;;;;;;;;5003508;28;20026;-57
2022/02/27 13:29:27;;;;;;;5.25;2.95;;;;;;;;;;4991516;28;20438;-57
2022/02/27 13:31:53;;;;;;;5.45;2.90;;;;;;;;;;4985437;28;20043;-58
2022/02/27 13:34:19;;;;;;;6.53;3.63;;;;;;;;;;4974541;28;20087;-58
2022/02/27 13:36:45;;;;;;;5.32;3.40;;;;;;;;;;4972001;28;20062;-58
2022/02/27 13:39:11;;;;;;;3.67;3.03;;;;;;;;;;4989319;28;20422;-56
2022/02/27 13:41:38;;;;;;;2.83;2.63;;;;;;;;;;4990868;28;20113;-57
2022/02/27 13:44:04;;;;;;;5.18;2.70;;;;;;;;;;4984203;28;20144;-58
2022/02/27 13:46:31;;;;;;;4.50;3.30;;;;;;;;;;4991121;28;20018;-57
2022/02/27 13:49:07;;;;;;;5.30;3.22;;;;;;;;;;4984869;28;20026;-58
2022/02/27 13:51:33;;;;;;;3.78;2.80;;;;;;;;;;4991129;28;20026;-57
2022/02/27 13:54:12;;;;;;;5.13;3.22;;;;;;;;;;4990124;28;20027;-56
2022/02/27 13:56:39;;;;;;;5.80;3.30;;;;;;;;;;4990493;28;20030;-55
2022/02/27 13:59:22;;;;;;;3.40;2.97;;;;;;;;;;4990724;28;20033;-57
2022/02/27 14:01:58;;;;;;;5.75;3.65;;;;;;;;;;4990939;28;20113;-58
2022/02/27 14:04:24;;;;;;;3.28;2.70;;;;;;;;;;4991077;28;20018;-58
2022/02/27 14:06:50;;;;;;;3.95;2.95;;;;;;;;;;4990965;28;20582;-57
2022/02/27 14:09:16;;;;;;;4.60;3.20;;;;;;;;;;4990956;28;20475;-57
2022/02/27 14:11:42;;;;;;;5.18;3.42;;;;;;;;;;4988610;28;20495;-58
2022/02/27 14:14:10;;;;;;;5.15;3.03;;;;;;;;;;4989561;28;20446;-56
2022/02/27 14:16:37;;;;;;;4.18;2.90;;;;;;;;;;4985684;28;20030;-59
2022/02/27 14:19:10;;;;;;;4.03;2.92;;;;;;;;;;4990612;28;20043;-58
2022/02/27 14:21:38;;;;;;;4.07;3.05;;;;;;;;;;4973497;28;20088;-57
2022/02/27 14:24:20;;;;;;;2.53;2.30;;;;;;;;;;4971335;28;20045;-58
2022/02/27 14:26:59;;;;;;;5.68;3.97;;;;;;;;;;4987717;28;20488;-57
2022/02/27 14:29:33;;;;;;;5.35;2.90;;;;;;;;;;4990734;28;20488;-58
2022/02/27 14:31:59;;;;;;;3.22;2.55;;;;;;;;;;4989672;28;20118;-58
2022/02/27 14:34:26;;;;;;;3.05;2.45;;;;;;;;;;4990922;28;20109;-57
2022/02/27 14:36:52;;;;;;;6.43;2.65;;;;;;;;;;4989442;28;20026;-57
2022/02/27 14:39:19;;;;;;;4.22;2.75;;;;;;;;;;4990922;28;20030;-58
2022/02/27 14:41:45;;;;;;;4.47;2.70;;;;;;;;;;4989519;28;20121;-57
2022/02/27 14:44:12;;;;;;;3.83;2.13;;;;;;;;;;4990595;28;20027;-57
2022/02/27 14:46:38;;;;;;;3.38;2.58;;;;;;;;;;4989624;28;20083;-59
2022/02/27 14:49:04;;;;;;;5.15;2.78;;;;;;;;;;4972421;28;20023;-59